Nordic Philip — 5BZH2 — position and weather

sailwx.info

Track history (hours):
 
Tides and Currents Weather Stations Pressure Air Temp Water Temp Dewpoint Dewpoint Depression Visibility Wind Speed Wind Dir Waves Ship Positions

Nordic Philip

Last reported at 2016-Apr-24 02:06 UTC. Time now 2016-Apr-28 23:57 UTC.
Position N 55°46' E 015°49'.

Length 152 m; draft 6 m.

Type: Ship (hazmat cat A). MMSI: 212018000.

Date/timePositionNaut miles runAvg speedWind from/ knotsBaromVisibWave heightAir tempDewpointWater temp
2016-Apr-24 02:06N 55°46' E 015°49'1018.0
2016-Apr-24 01:33N 55°41' E 015°33'1818.1
2016-Apr-24 00:33N 55°32' E 015°05'1818.3
2016-Apr-23 23:34N 55°23' E 014°38'1818.3
2016-Apr-23 22:33N 55°09' E 014°17'1817.7
2016-Apr-23 21:33N 54°59' E 013°52'3618.3
2016-Apr-23 19:34N 54°47' E 012°52'1717.4
2016-Apr-23 18:33N 54°38' E 012°26'1717.1
2016-Apr-23 17:33N 54°24' E 012°08'1817.9
2016-Apr-23 16:33N 54°26' E 011°38'1918.6
2016-Apr-23 15:33N 54°35' E 011°10'1817.7
2016-Apr-23 14:33N 54°34' E 010°39'1515.3
2016-Apr-23 13:34N 54°27' E 010°15'7 6.6
2016-Apr-23 12:33N 54°22' E 010°08'1 1.0
2016-Apr-23 11:33N 54°22' E 010°07'4 3.9
2016-Apr-23 10:34N 54°21' E 010°00'7 6.8
2016-Apr-23 09:33N 54°22' E 009°49'8 7.8
2016-Apr-23 08:33N 54°17' E 009°38'6 5.7
2016-Apr-23 07:31N 54°12' E 009°33'5 4.7
2016-Apr-23 06:33N 54°10' E 009°26'5 4.8
2016-Apr-23 05:32N 54°07' E 009°20'7 7.4
2016-Apr-23 04:34N 53°60' E 009°17'7 7.2
2016-Apr-23 03:34N 53°54' E 009°10'1 0.7
2016-Apr-23 02:33N 53°54' E 009°09'1 1.3
2016-Apr-23 01:33N 53°53' E 009°07'0 0.0
2016-Apr-23 00:32N 53°53' E 009°07'5 5.3
2016-Apr-22 23:33N 53°51' E 008°59'1615.7
2016-Apr-22 22:33N 53°58' E 008°34'1716.6
2016-Apr-22 21:34N 53°59' E 008°06'8 8.1
2016-Apr-22 20:33N 53°51' E 008°02'1313.1
2016-Apr-22 19:34N 53°43' E 008°19'1110.9
2016-Apr-22 18:33N 53°35' E 008°32'0 0.0
2016-Apr-22 17:33N 53°35' E 008°32'0 0.0
2016-Apr-22 16:33N 53°35' E 008°32'0 0.0
2016-Apr-22 15:33N 53°35' E 008°32'0 0.0
2016-Apr-22 14:33N 53°35' E 008°32'0 0.0
2016-Apr-22 13:33N 53°35' E 008°32'0 0.0
2016-Apr-22 12:33N 53°35' E 008°32'0 0.0
2016-Apr-22 11:33N 53°35' E 008°32'0 0.0
2016-Apr-22 10:33N 53°35' E 008°32'0 0.0
2016-Apr-22 09:33N 53°35' E 008°32'0 0.0
2016-Apr-22 08:33N 53°35' E 008°32'1 0.9
2016-Apr-22 07:30N 53°36' E 008°31'0 0.0
2016-Apr-22 06:33N 53°36' E 008°31'0 0.0
2016-Apr-22 05:33N 53°36' E 008°31'0 0.0
2016-Apr-22 04:33N 53°36' E 008°31'0 0.0
2016-Apr-22 03:33N 53°36' E 008°31'0 0.0
2016-Apr-22 02:33N 53°36' E 008°31'0 0.0
2016-Apr-22 01:33N 53°36' E 008°31'0 0.0
2016-Apr-22 00:33N 53°36' E 008°31'0 0.0
2016-Apr-21 23:33N 53°36' E 008°31'0 0.1
2016-Apr-21 22:33N 53°36' E 008°31'1414.4
2016-Apr-21 21:33N 53°45' E 008°12'1313.4
2016-Apr-21 20:33N 53°54' E 007°56'1212.2
2016-Apr-21 19:33N 54°00' E 008°15'1313.0
2016-Apr-21 18:32N 53°58' E 008°36'1414.2
2016-Apr-21 17:34N 53°51' E 008°57'1414.4
2016-Apr-21 16:34N 53°50' E 009°21'1514.8
2016-Apr-21 15:33N 53°37' E 009°33'1111.4
2016-Apr-21 14:33N 53°33' E 009°51'2 2.2
2016-Apr-21 13:28N 53°32' E 009°55'0 0.0
2016-Apr-21 12:31N 53°32' E 009°55'0 0.0
2016-Apr-21 11:31N 53°32' E 009°55'0 0.0
2016-Apr-21 10:31N 53°32' E 009°55'0 0.0
2016-Apr-21 09:31N 53°32' E 009°55'0 0.0
2016-Apr-21 08:31N 53°32' E 009°55'0 0.0
2016-Apr-21 07:31N 53°32' E 009°55'0 0.0
2016-Apr-21 06:31N 53°32' E 009°55'0 0.0
2016-Apr-21 05:31N 53°32' E 009°55'0 0.0
2016-Apr-21 04:31N 53°32' E 009°55'2 2.0
2016-Apr-21 03:33N 53°31' E 009°56'0 0.0
2016-Apr-21 02:33N 53°31' E 009°56'0 0.0
2016-Apr-21 01:33N 53°31' E 009°56'0 0.0
2016-Apr-21 00:33N 53°31' E 009°56'0 0.0
2016-Apr-20 23:33N 53°31' E 009°56'0 0.0
2016-Apr-20 22:33N 53°31' E 009°56'0 0.0
2016-Apr-20 21:33N 53°31' E 009°56'0 0.0
2016-Apr-20 20:33N 53°31' E 009°56'0 0.0
2016-Apr-20 19:33N 53°31' E 009°56'1 1.2
2016-Apr-20 18:34N 53°32' E 009°56'1 1.0
2016-Apr-20 17:28N 53°32' E 009°54'0 0.0
2016-Apr-20 16:28N 53°32' E 009°54'0 0.0
2016-Apr-20 15:31N 53°32' E 009°54'0 0.0
2016-Apr-20 14:31N 53°32' E 009°54'0 0.0
2016-Apr-20 13:33N 53°32' E 009°54'8 8.2
2016-Apr-20 12:33N 53°34' E 009°41'1616.3
2016-Apr-20 11:33N 53°47' E 009°23'1111.2
2016-Apr-20 10:33N 53°54' E 009°09'2 2.0
2016-Apr-20 09:33N 53°55' E 009°11'8 7.9
2016-Apr-20 08:33N 54°02' E 009°18'4 4.1
2016-Apr-20 07:33N 54°06' E 009°20'7 7.4
2016-Apr-20 06:33N 54°11' E 009°29'12 5.9
2016-Apr-20 04:27N 54°20' E 009°44'6 6.2
2016-Apr-20 03:33N 54°21' E 009°53'6 5.8
2016-Apr-20 02:34N 54°22' E 010°03'2 1.9
2016-Apr-20 01:33N 54°22' E 010°06'2 2.3
2016-Apr-20 00:33N 54°22' E 010°10'9 8.7
2016-Apr-19 23:34N 54°30' E 010°17'1414.3
2016-Apr-19 22:34N 54°35' E 010°40'1616.0
2016-Apr-19 21:33N 54°36' E 011°07'1514.6
2016-Apr-19 20:33N 54°31' E 011°31'1514.8
2016-Apr-19 19:33N 54°25' E 011°54'1413.6
2016-Apr-19 18:33N 54°33' E 012°14'3516.0
2016-Apr-19 16:21N 54°53' E 013°05'1317.0
2016-Apr-19 15:33N 54°57' E 013°27'1717.2
2016-Apr-19 14:33N 55°03' E 013°55'1716.5
2016-Apr-19 13:33N 55°14' E 014°17'1717.0
2016-Apr-19 12:33N 55°26' E 014°37'1616.5
2016-Apr-19 11:33N 55°35' E 015°02'1616.2
2016-Apr-19 10:33N 55°43' E 015°27'  
Track history (hours):
 
Tides and Currents Weather Stations Pressure Air Temp Water Temp Dewpoint Dewpoint Depression Visibility Wind Speed Wind Dir Waves Ship Positions

Nordic Philip

Last reported at 2016-Apr-24 02:06 UTC. Time now 2016-Apr-28 23:57 UTC.
Position N 55°46' E 015°49'.

Length 152 m; draft 6 m.

Type: Ship (hazmat cat A). MMSI: 212018000.

Date/timePositionNaut miles runAvg speedWind from/ knotsBaromVisibWave heightAir tempDewpointWater temp
2016-Apr-24 02:06N 55°46' E 015°49'1018.0
2016-Apr-24 01:33N 55°41' E 015°33'1818.1
2016-Apr-24 00:33N 55°32' E 015°05'1818.3
2016-Apr-23 23:34N 55°23' E 014°38'1818.3
2016-Apr-23 22:33N 55°09' E 014°17'1817.7
2016-Apr-23 21:33N 54°59' E 013°52'3618.3
2016-Apr-23 19:34N 54°47' E 012°52'1717.4
2016-Apr-23 18:33N 54°38' E 012°26'1717.1
2016-Apr-23 17:33N 54°24' E 012°08'1817.9
2016-Apr-23 16:33N 54°26' E 011°38'1918.6
2016-Apr-23 15:33N 54°35' E 011°10'1817.7
2016-Apr-23 14:33N 54°34' E 010°39'1515.3
2016-Apr-23 13:34N 54°27' E 010°15'7 6.6
2016-Apr-23 12:33N 54°22' E 010°08'1 1.0
2016-Apr-23 11:33N 54°22' E 010°07'4 3.9
2016-Apr-23 10:34N 54°21' E 010°00'7 6.8
2016-Apr-23 09:33N 54°22' E 009°49'8 7.8
2016-Apr-23 08:33N 54°17' E 009°38'6 5.7
2016-Apr-23 07:31N 54°12' E 009°33'5 4.7
2016-Apr-23 06:33N 54°10' E 009°26'5 4.8
2016-Apr-23 05:32N 54°07' E 009°20'7 7.4
2016-Apr-23 04:34N 53°60' E 009°17'7 7.2
2016-Apr-23 03:34N 53°54' E 009°10'1 0.7
2016-Apr-23 02:33N 53°54' E 009°09'1 1.3
2016-Apr-23 01:33N 53°53' E 009°07'0 0.0
2016-Apr-23 00:32N 53°53' E 009°07'5 5.3
2016-Apr-22 23:33N 53°51' E 008°59'1615.7
2016-Apr-22 22:33N 53°58' E 008°34'1716.6
2016-Apr-22 21:34N 53°59' E 008°06'8 8.1
2016-Apr-22 20:33N 53°51' E 008°02'1313.1
2016-Apr-22 19:34N 53°43' E 008°19'1110.9
2016-Apr-22 18:33N 53°35' E 008°32'0 0.0
2016-Apr-22 17:33N 53°35' E 008°32'0 0.0
2016-Apr-22 16:33N 53°35' E 008°32'0 0.0
2016-Apr-22 15:33N 53°35' E 008°32'0 0.0
2016-Apr-22 14:33N 53°35' E 008°32'0 0.0
2016-Apr-22 13:33N 53°35' E 008°32'0 0.0
2016-Apr-22 12:33N 53°35' E 008°32'0 0.0
2016-Apr-22 11:33N 53°35' E 008°32'0 0.0
2016-Apr-22 10:33N 53°35' E 008°32'0 0.0
2016-Apr-22 09:33N 53°35' E 008°32'0 0.0
2016-Apr-22 08:33N 53°35' E 008°32'1 0.9
2016-Apr-22 07:30N 53°36' E 008°31'0 0.0
2016-Apr-22 06:33N 53°36' E 008°31'0 0.0
2016-Apr-22 05:33N 53°36' E 008°31'0 0.0
2016-Apr-22 04:33N 53°36' E 008°31'0 0.0
2016-Apr-22 03:33N 53°36' E 008°31'0 0.0
2016-Apr-22 02:33N 53°36' E 008°31'0 0.0
2016-Apr-22 01:33N 53°36' E 008°31'0 0.0
2016-Apr-22 00:33N 53°36' E 008°31'0 0.0
2016-Apr-21 23:33N 53°36' E 008°31'0 0.1
2016-Apr-21 22:33N 53°36' E 008°31'1414.4
2016-Apr-21 21:33N 53°45' E 008°12'1313.4
2016-Apr-21 20:33N 53°54' E 007°56'1212.2
2016-Apr-21 19:33N 54°00' E 008°15'1313.0
2016-Apr-21 18:32N 53°58' E 008°36'1414.2
2016-Apr-21 17:34N 53°51' E 008°57'1414.4
2016-Apr-21 16:34N 53°50' E 009°21'1514.8
2016-Apr-21 15:33N 53°37' E 009°33'1111.4
2016-Apr-21 14:33N 53°33' E 009°51'2 2.2
2016-Apr-21 13:28N 53°32' E 009°55'0 0.0
2016-Apr-21 12:31N 53°32' E 009°55'0 0.0
2016-Apr-21 11:31N 53°32' E 009°55'0 0.0
2016-Apr-21 10:31N 53°32' E 009°55'0 0.0
2016-Apr-21 09:31N 53°32' E 009°55'0 0.0
2016-Apr-21 08:31N 53°32' E 009°55'0 0.0
2016-Apr-21 07:31N 53°32' E 009°55'0 0.0
2016-Apr-21 06:31N 53°32' E 009°55'0 0.0
2016-Apr-21 05:31N 53°32' E 009°55'0 0.0
2016-Apr-21 04:31N 53°32' E 009°55'2 2.0
2016-Apr-21 03:33N 53°31' E 009°56'0 0.0
2016-Apr-21 02:33N 53°31' E 009°56'0 0.0
2016-Apr-21 01:33N 53°31' E 009°56'0 0.0
2016-Apr-21 00:33N 53°31' E 009°56'0 0.0
2016-Apr-20 23:33N 53°31' E 009°56'0 0.0
2016-Apr-20 22:33N 53°31' E 009°56'0 0.0
2016-Apr-20 21:33N 53°31' E 009°56'0 0.0
2016-Apr-20 20:33N 53°31' E 009°56'0 0.0
2016-Apr-20 19:33N 53°31' E 009°56'1 1.2
2016-Apr-20 18:34N 53°32' E 009°56'1 1.0
2016-Apr-20 17:28N 53°32' E 009°54'0 0.0
2016-Apr-20 16:28N 53°32' E 009°54'0 0.0
2016-Apr-20 15:31N 53°32' E 009°54'0 0.0
2016-Apr-20 14:31N 53°32' E 009°54'0 0.0
2016-Apr-20 13:33N 53°32' E 009°54'8 8.2
2016-Apr-20 12:33N 53°34' E 009°41'1616.3
2016-Apr-20 11:33N 53°47' E 009°23'1111.2
2016-Apr-20 10:33N 53°54' E 009°09'2 2.0
2016-Apr-20 09:33N 53°55' E 009°11'8 7.9
2016-Apr-20 08:33N 54°02' E 009°18'4 4.1
2016-Apr-20 07:33N 54°06' E 009°20'7 7.4
2016-Apr-20 06:33N 54°11' E 009°29'12 5.9
2016-Apr-20 04:27N 54°20' E 009°44'6 6.2
2016-Apr-20 03:33N 54°21' E 009°53'6 5.8
2016-Apr-20 02:34N 54°22' E 010°03'2 1.9
2016-Apr-20 01:33N 54°22' E 010°06'2 2.3
2016-Apr-20 00:33N 54°22' E 010°10'9 8.7
2016-Apr-19 23:34N 54°30' E 010°17'1414.3
2016-Apr-19 22:34N 54°35' E 010°40'1616.0
2016-Apr-19 21:33N 54°36' E 011°07'1514.6
2016-Apr-19 20:33N 54°31' E 011°31'1514.8
2016-Apr-19 19:33N 54°25' E 011°54'1413.6
2016-Apr-19 18:33N 54°33' E 012°14'3516.0
2016-Apr-19 16:21N 54°53' E 013°05'1317.0
2016-Apr-19 15:33N 54°57' E 013°27'1717.2
2016-Apr-19 14:33N 55°03' E 013°55'1716.5
2016-Apr-19 13:33N 55°14' E 014°17'1717.0
2016-Apr-19 12:33N 55°26' E 014°37'1616.5
2016-Apr-19 11:33N 55°35' E 015°02'1616.2
2016-Apr-19 10:33N 55°43' E 015°27'  

Dump ship's entire track history